createdAt,value
2019-05-29T00:00:04.228Z,21.74
2019-05-29T00:02:31.152Z,21.74
2019-05-29T00:04:58.233Z,21.75
2019-05-29T00:07:25.041Z,21.74
2019-05-29T00:09:52.804Z,21.74
2019-05-29T00:12:21.191Z,21.74
2019-05-29T00:14:48.374Z,21.75
2019-05-29T00:17:15.508Z,21.75
2019-05-29T00:19:42.649Z,21.74
2019-05-29T00:22:10.288Z,21.73
2019-05-29T00:24:37.449Z,21.75
2019-05-29T00:27:05.408Z,21.74
2019-05-29T00:29:32.682Z,21.75
2019-05-29T00:31:59.596Z,21.75
2019-05-29T00:34:26.785Z,21.74
2019-05-29T00:36:53.896Z,21.74
2019-05-29T00:39:21.168Z,21.74
2019-05-29T00:41:48.413Z,21.74
2019-05-29T00:44:17.467Z,21.75
2019-05-29T00:46:45.776Z,21.75
2019-05-29T00:49:14.232Z,21.74
2019-05-29T00:51:41.220Z,21.74
2019-05-29T00:54:08.596Z,21.75
2019-05-29T00:56:35.592Z,21.74
2019-05-29T00:59:03.426Z,21.74
2019-05-29T01:01:30.624Z,21.74
2019-05-29T01:03:57.698Z,21.74
2019-05-29T01:06:24.746Z,21.74
2019-05-29T01:08:59.365Z,21.74
2019-05-29T01:11:27.600Z,21.74
2019-05-29T01:13:54.689Z,21.76
2019-05-29T01:16:21.741Z,21.74
2019-05-29T01:18:48.908Z,21.74
2019-05-29T01:21:17.996Z,21.74
2019-05-29T01:23:45.135Z,21.74
2019-05-29T01:26:12.479Z,21.74
2019-05-29T01:28:39.754Z,21.74
2019-05-29T01:31:06.976Z,21.74
2019-05-29T01:33:34.132Z,21.75
2019-05-29T01:36:01.301Z,21.74
2019-05-29T01:38:28.494Z,21.74
2019-05-29T01:40:55.535Z,21.73
2019-05-29T01:43:23.562Z,21.73
2019-05-29T01:45:53.679Z,21.74
2019-05-29T01:48:27.800Z,21.74
2019-05-29T01:50:56.998Z,21.73
2019-05-29T01:53:24.410Z,21.74
2019-05-29T01:55:51.285Z,21.73
2019-05-29T01:58:18.184Z,21.74
2019-05-29T02:00:44.986Z,21.73
2019-05-29T02:03:11.842Z,21.74
2019-05-29T02:05:38.686Z,21.74
2019-05-29T02:08:05.568Z,21.74
2019-05-29T02:10:32.377Z,21.75
2019-05-29T02:12:59.207Z,21.74
2019-05-29T02:15:33.462Z,21.31
2019-05-29T02:17:54.661Z,21.75
2019-05-29T02:20:21.484Z,21.76
2019-05-29T02:22:48.268Z,21.75
2019-05-29T02:25:16.398Z,21.76
2019-05-29T02:27:43.616Z,21.76
2019-05-29T02:30:10.568Z,21.76
2019-05-29T02:32:37.410Z,21.77
2019-05-29T02:35:04.216Z,21.76
2019-05-29T02:37:31.084Z,21.76
2019-05-29T02:39:57.927Z,21.76
2019-05-29T02:42:25.206Z,21.76
2019-05-29T02:44:52.138Z,21.77
2019-05-29T02:47:19.331Z,21.76
2019-05-29T02:49:46.284Z,21.76
2019-05-29T02:52:13.171Z,21.76
2019-05-29T02:54:39.959Z,21.76
2019-05-29T02:57:06.768Z,21.76
2019-05-29T02:59:33.663Z,21.76
2019-05-29T03:02:00.553Z,21.75
2019-05-29T03:04:28.179Z,21.75
2019-05-29T03:06:55.464Z,21.76
2019-05-29T03:09:22.828Z,21.75
2019-05-29T03:11:50.539Z,21.76
2019-05-29T03:14:17.333Z,21.75
2019-05-29T03:16:44.214Z,21.75
2019-05-29T03:19:11.033Z,21.74
2019-05-29T03:21:37.860Z,21.75
2019-05-29T03:24:04.815Z,21.76
2019-05-29T03:26:33.411Z,21.75
2019-05-29T03:29:00.217Z,21.74
2019-05-29T03:31:30.818Z,21.74
2019-05-29T03:33:55.793Z,21.74
2019-05-29T03:36:22.766Z,21.74
2019-05-29T03:38:49.620Z,21.74
2019-05-29T03:41:16.414Z,21.75
2019-05-29T03:43:43.219Z,21.74
2019-05-29T03:46:29.316Z,21.74
2019-05-29T03:48:38.653Z,21.74
2019-05-29T03:51:05.527Z,21.74
2019-05-29T03:53:33.818Z,21.74
2019-05-29T03:56:00.930Z,21.74
2019-05-29T03:58:28.886Z,21.75
2019-05-29T04:00:56.270Z,21.74
2019-05-29T04:03:23.110Z,21.74
2019-05-29T04:05:50.074Z,21.74
2019-05-29T04:08:17.007Z,21.74
2019-05-29T04:10:43.989Z,21.74
2019-05-29T04:13:10.813Z,21.74
2019-05-29T04:15:38.687Z,21.73
2019-05-29T04:18:05.853Z,21.10
2019-05-29T04:20:33.603Z,21.73
2019-05-29T04:23:00.481Z,21.74
2019-05-29T04:25:33.169Z,21.73
2019-05-29T04:27:55.837Z,21.73
2019-05-29T04:30:22.719Z,21.73
2019-05-29T04:32:49.644Z,21.73
2019-05-29T04:35:16.438Z,21.73
2019-05-29T04:37:43.303Z,21.73
2019-05-29T04:40:10.199Z,21.73
2019-05-29T04:42:37.673Z,21.73
2019-05-29T04:45:05.534Z,21.73
2019-05-29T04:47:33.312Z,21.73
2019-05-29T04:50:00.833Z,21.74
2019-05-29T04:52:28.987Z,21.73
2019-05-29T04:54:56.049Z,21.73
2019-05-29T04:57:22.937Z,21.73
2019-05-29T04:59:49.868Z,21.73
2019-05-29T05:02:16.770Z,21.73
2019-05-29T05:04:43.649Z,21.73
2019-05-29T05:07:10.526Z,21.73
2019-05-29T05:09:37.588Z,21.73
2019-05-29T05:12:04.598Z,21.73
2019-05-29T05:14:31.565Z,21.72
2019-05-29T05:16:58.447Z,21.73
2019-05-29T05:19:25.286Z,21.73
2019-05-29T05:21:52.097Z,21.73
2019-05-29T05:24:18.931Z,21.73
2019-05-29T05:26:45.827Z,21.73
2019-05-29T05:29:12.652Z,21.74
2019-05-29T05:31:40.662Z,21.72
2019-05-29T05:34:07.730Z,21.73
2019-05-29T05:36:34.764Z,21.73
2019-05-29T05:39:01.533Z,21.73
2019-05-29T05:41:28.687Z,21.73
2019-05-29T05:43:55.509Z,21.73
2019-05-29T05:46:24.753Z,21.73
2019-05-29T05:48:50.915Z,21.73
2019-05-29T05:51:17.708Z,21.74
2019-05-29T05:53:44.502Z,21.78
2019-05-29T05:56:11.283Z,21.83
2019-05-29T05:58:38.136Z,21.83
2019-05-29T06:01:04.910Z,21.82
2019-05-29T06:03:31.858Z,21.75
2019-05-29T06:05:58.757Z,20.58
2019-05-29T06:08:25.546Z,19.97
2019-05-29T06:10:52.399Z,19.60
2019-05-29T06:13:19.159Z,19.55
2019-05-29T06:15:45.995Z,19.60
2019-05-29T06:18:21.104Z,19.51
2019-05-29T06:20:41.299Z,19.44
2019-05-29T06:23:08.087Z,19.74
2019-05-29T06:25:36.857Z,19.87
2019-05-29T06:28:03.392Z,19.77
2019-05-29T06:30:30.189Z,19.45
2019-05-29T06:32:56.983Z,19.47
2019-05-29T06:35:23.756Z,19.48
2019-05-29T06:37:50.534Z,19.39
2019-05-29T06:40:17.449Z,19.34
2019-05-29T06:42:44.275Z,19.28
2019-05-29T06:45:11.149Z,19.36
2019-05-29T06:47:38.797Z,19.41
2019-05-29T06:50:06.090Z,19.43
2019-05-29T06:52:32.900Z,19.45
2019-05-29T06:54:59.689Z,19.49
2019-05-29T06:57:26.468Z,20.02
2019-05-29T06:59:53.240Z,20.41
2019-05-29T07:02:20.018Z,20.61
2019-05-29T07:04:46.804Z,20.74
2019-05-29T07:07:13.581Z,20.81
2019-05-29T07:09:41.076Z,20.85
2019-05-29T07:12:08.035Z,20.88
2019-05-29T07:14:36.064Z,20.89
2019-05-29T07:17:03.274Z,20.93
2019-05-29T07:19:47.439Z,20.93
2019-05-29T07:21:58.587Z,20.94
2019-05-29T07:24:25.439Z,20.96
2019-05-29T07:26:52.232Z,20.98
2019-05-29T07:29:19.012Z,20.99
2019-05-29T07:31:45.781Z,21.00
2019-05-29T07:34:12.605Z,21.02
2019-05-29T07:36:39.902Z,21.03
2019-05-29T07:39:06.900Z,21.03
2019-05-29T07:41:33.673Z,21.05
2019-05-29T07:44:00.450Z,21.06
2019-05-29T07:46:27.248Z,21.07
2019-05-29T07:48:54.022Z,21.06
2019-05-29T07:51:20.802Z,21.09
2019-05-29T07:53:48.804Z,21.09
2019-05-29T07:56:22.755Z,21.10
2019-05-29T07:58:56.855Z,21.10
2019-05-29T08:01:13.977Z,21.11
2019-05-29T08:03:41.259Z,21.11
2019-05-29T08:06:08.210Z,21.13
2019-05-29T08:08:35.018Z,21.16
2019-05-29T08:11:01.830Z,21.19
2019-05-29T08:13:28.629Z,21.18
2019-05-29T08:16:02.752Z,21.18
2019-05-29T08:18:24.111Z,21.17
2019-05-29T08:20:53.085Z,21.21
2019-05-29T08:23:19.897Z,21.24
2019-05-29T08:25:49.676Z,21.24
2019-05-29T08:28:16.718Z,21.26
2019-05-29T08:30:48.343Z,21.26
2019-05-29T08:33:12.351Z,21.29
2019-05-29T08:35:41.396Z,21.32
2019-05-29T08:38:08.452Z,21.33
2019-05-29T08:40:35.419Z,21.31
2019-05-29T08:43:02.276Z,21.34
2019-05-29T08:45:29.120Z,21.35
2019-05-29T08:47:55.926Z,21.35
2019-05-29T08:50:22.704Z,21.34
2019-05-29T08:52:50.120Z,21.32
2019-05-29T08:55:17.033Z,21.30
2019-05-29T08:57:44.261Z,21.29
2019-05-29T09:00:11.202Z,21.28
2019-05-29T09:02:37.990Z,21.27
2019-05-29T09:05:04.841Z,21.27
2019-05-29T09:07:31.694Z,21.26
2019-05-29T09:09:58.478Z,21.26
2019-05-29T09:12:25.270Z,21.26
2019-05-29T09:14:52.068Z,21.27
2019-05-29T09:17:20.054Z,21.25
2019-05-29T09:19:46.900Z,21.26
2019-05-29T09:22:14.850Z,21.27
2019-05-29T09:24:41.741Z,21.26
2019-05-29T09:27:08.557Z,21.28
2019-05-29T09:29:35.348Z,21.27
2019-05-29T09:32:02.123Z,21.27
2019-05-29T09:34:29.006Z,21.27
2019-05-29T09:36:56.068Z,21.28
2019-05-29T09:39:23.004Z,21.28
2019-05-29T09:41:49.761Z,21.28
2019-05-29T09:44:31.145Z,21.28
2019-05-29T09:46:45.047Z,21.27
2019-05-29T09:49:11.833Z,21.28
2019-05-29T09:51:38.633Z,21.28
2019-05-29T09:54:05.550Z,21.29
2019-05-29T09:56:32.373Z,21.28
2019-05-29T09:59:00.384Z,21.29
2019-05-29T10:01:27.717Z,21.29
2019-05-29T10:03:55.333Z,21.30
2019-05-29T10:06:23.046Z,21.30
2019-05-29T10:08:49.828Z,21.29
2019-05-29T10:11:16.637Z,21.30
2019-05-29T10:13:43.407Z,21.30
2019-05-29T10:16:10.223Z,21.30
2019-05-29T10:18:37.004Z,21.30
2019-05-29T10:21:05.042Z,21.30
2019-05-29T10:23:32.024Z,21.30
2019-05-29T10:26:00.285Z,21.30
2019-05-29T10:28:27.297Z,21.31
2019-05-29T10:30:54.071Z,21.31
2019-05-29T10:33:20.871Z,21.30
2019-05-29T10:35:49.686Z,21.31
2019-05-29T10:38:16.187Z,21.31
2019-05-29T10:40:47.356Z,21.31
2019-05-29T10:43:11.495Z,21.31
2019-05-29T10:45:38.274Z,21.31
2019-05-29T10:48:05.127Z,21.32
2019-05-29T10:50:31.903Z,21.32
2019-05-29T10:52:58.683Z,21.32
2019-05-29T10:55:25.450Z,21.32
2019-05-29T10:57:53.093Z,21.32
2019-05-29T11:00:20.230Z,21.33
2019-05-29T11:02:48.140Z,21.32
2019-05-29T11:05:15.590Z,21.33
2019-05-29T11:07:42.399Z,21.33
2019-05-29T11:10:11.243Z,21.33
2019-05-29T11:12:39.494Z,21.32
2019-05-29T11:15:20.404Z,21.33
2019-05-29T11:17:34.881Z,21.33
2019-05-29T11:20:01.707Z,21.34
2019-05-29T11:22:28.571Z,21.35
2019-05-29T11:24:56.583Z,21.34
2019-05-29T11:27:26.029Z,21.35
2019-05-29T11:29:53.297Z,21.34
2019-05-29T11:32:20.553Z,21.34
2019-05-29T11:34:47.346Z,21.34
2019-05-29T11:37:14.155Z,21.35
2019-05-29T11:39:40.919Z,21.35
2019-05-29T11:42:07.699Z,21.35
2019-05-29T11:44:34.479Z,21.35
2019-05-29T11:47:02.810Z,21.36
2019-05-29T11:49:29.824Z,21.35
2019-05-29T11:52:18.682Z,21.35
2019-05-29T11:54:25.140Z,21.35
2019-05-29T11:56:53.590Z,21.38
2019-05-29T11:59:20.481Z,21.39
2019-05-29T12:01:50.736Z,21.40
2019-05-29T12:04:25.737Z,21.39
2019-05-29T12:06:44.292Z,21.38
2019-05-29T12:09:11.403Z,21.38
2019-05-29T12:11:38.202Z,21.37
2019-05-29T12:14:05.094Z,21.38
2019-05-29T12:16:31.944Z,21.38
2019-05-29T12:18:59.806Z,21.38
2019-05-29T12:21:26.763Z,21.38
2019-05-29T12:23:53.994Z,21.37
2019-05-29T12:26:23.050Z,21.37
2019-05-29T12:28:49.425Z,21.37
2019-05-29T12:31:16.269Z,21.37
2019-05-29T12:33:43.065Z,21.37
2019-05-29T12:36:09.828Z,21.38
2019-05-29T12:38:36.637Z,21.38
2019-05-29T12:41:03.821Z,21.38
2019-05-29T12:43:30.858Z,21.38
2019-05-29T12:45:57.801Z,21.38
2019-05-29T12:48:24.690Z,21.38
2019-05-29T12:50:51.471Z,21.38
2019-05-29T12:53:29.756Z,21.38
2019-05-29T12:55:46.766Z,21.37
2019-05-29T12:58:13.534Z,21.38
2019-05-29T13:00:40.301Z,21.38
2019-05-29T13:03:07.096Z,21.37
2019-05-29T13:05:33.936Z,21.38
2019-05-29T13:08:00.883Z,21.38
2019-05-29T13:10:30.973Z,21.38
2019-05-29T13:13:02.360Z,21.38
2019-05-29T13:15:25.138Z,21.38
2019-05-29T13:17:55.537Z,21.38
2019-05-29T13:20:22.020Z,21.38
2019-05-29T13:22:48.973Z,21.39
2019-05-29T13:25:15.768Z,21.39
2019-05-29T13:27:42.559Z,21.40
2019-05-29T13:30:09.447Z,21.40
2019-05-29T13:32:36.296Z,21.40
2019-05-29T13:35:04.256Z,21.39
2019-05-29T13:37:31.128Z,21.39
2019-05-29T13:39:57.989Z,21.39
2019-05-29T13:42:24.785Z,21.39
2019-05-29T13:44:51.601Z,21.39
2019-05-29T13:47:18.429Z,21.40
2019-05-29T13:49:45.207Z,21.39
2019-05-29T13:52:12.582Z,21.40
2019-05-29T13:54:39.628Z,21.40
2019-05-29T13:57:07.134Z,21.39
2019-05-29T13:59:34.996Z,21.40
2019-05-29T14:02:05.778Z,21.40
2019-05-29T14:04:30.284Z,21.40
2019-05-29T14:06:58.495Z,21.41
2019-05-29T14:09:25.456Z,21.40
2019-05-29T14:11:52.305Z,21.40
2019-05-29T14:14:19.080Z,21.41
2019-05-29T14:16:45.866Z,21.40
2019-05-29T14:19:13.542Z,21.40
2019-05-29T14:21:40.420Z,21.40
2019-05-29T14:24:24.375Z,21.40
2019-05-29T14:26:35.721Z,21.41
2019-05-29T14:29:03.506Z,21.40
2019-05-29T14:31:30.386Z,21.40
2019-05-29T14:33:57.154Z,21.40
2019-05-29T14:36:23.940Z,21.40
2019-05-29T14:38:50.735Z,21.41
2019-05-29T14:41:17.502Z,21.41
2019-05-29T14:43:44.265Z,21.41
2019-05-29T14:46:12.142Z,21.41
2019-05-29T14:48:39.024Z,21.42
2019-05-29T14:51:06.591Z,21.40
2019-05-29T14:53:33.475Z,21.41
2019-05-29T14:56:00.266Z,21.41
2019-05-29T14:58:27.038Z,21.41
2019-05-29T15:00:53.822Z,21.40
2019-05-29T15:03:20.603Z,21.41
2019-05-29T15:05:47.378Z,21.41
2019-05-29T15:08:14.327Z,21.42
2019-05-29T15:10:41.205Z,21.41
2019-05-29T15:13:08.965Z,21.37
2019-05-29T15:15:36.521Z,21.40
2019-05-29T15:18:04.800Z,21.41
2019-05-29T15:20:31.833Z,21.41
2019-05-29T15:22:58.685Z,21.41
2019-05-29T15:25:25.539Z,21.48
2019-05-29T15:27:52.400Z,21.51
2019-05-29T15:30:23.136Z,21.51
2019-05-29T15:32:48.114Z,21.48
2019-05-29T15:35:18.423Z,21.47
2019-05-29T15:37:46.086Z,21.46
2019-05-29T15:40:13.109Z,21.47
2019-05-29T15:42:40.097Z,21.47
2019-05-29T15:45:07.649Z,21.52
2019-05-29T15:47:34.543Z,21.57
2019-05-29T15:50:01.559Z,21.58
2019-05-29T15:52:28.512Z,21.57
2019-05-29T15:54:56.075Z,21.54
2019-05-29T15:57:23.029Z,20.82
2019-05-29T15:59:50.007Z,21.47
2019-05-29T16:02:17.999Z,21.46
2019-05-29T16:04:45.057Z,21.45
2019-05-29T16:07:12.015Z,21.43
2019-05-29T16:09:39.799Z,21.44
2019-05-29T16:12:06.700Z,21.43
2019-05-29T16:14:33.577Z,21.43
2019-05-29T16:17:00.485Z,21.42
2019-05-29T16:19:27.346Z,21.43
2019-05-29T16:21:54.132Z,21.43
2019-05-29T16:24:20.918Z,21.43
2019-05-29T16:26:47.676Z,21.43
2019-05-29T16:29:17.321Z,21.47
2019-05-29T16:31:42.998Z,21.49
2019-05-29T16:34:09.849Z,21.50
2019-05-29T16:36:36.665Z,21.51
2019-05-29T16:39:04.627Z,21.49
2019-05-29T16:41:31.412Z,21.49
2019-05-29T16:43:58.208Z,21.48
2019-05-29T16:46:25.039Z,21.48
2019-05-29T16:48:51.833Z,21.47
2019-05-29T16:51:18.841Z,21.47
2019-05-29T16:53:45.684Z,21.47
2019-05-29T16:56:12.742Z,21.46
2019-05-29T16:58:39.500Z,21.46
2019-05-29T17:01:06.283Z,21.46
2019-05-29T17:03:33.088Z,21.47
2019-05-29T17:05:59.882Z,21.46
2019-05-29T17:08:26.664Z,21.46
2019-05-29T17:10:53.435Z,21.46
2019-05-29T17:13:20.656Z,21.46
2019-05-29T17:15:47.488Z,21.46
2019-05-29T17:18:14.751Z,21.46
2019-05-29T17:20:41.601Z,21.46
2019-05-29T17:23:08.434Z,21.45
2019-05-29T17:25:35.192Z,21.46
2019-05-29T17:28:01.978Z,21.47
2019-05-29T17:30:28.773Z,21.46
2019-05-29T17:32:55.558Z,21.46
2019-05-29T17:35:23.182Z,21.46
2019-05-29T17:37:50.094Z,21.46
2019-05-29T17:40:17.372Z,21.45
2019-05-29T17:42:44.170Z,21.46
2019-05-29T17:45:12.226Z,21.46
2019-05-29T17:47:39.746Z,21.46
2019-05-29T17:50:06.562Z,21.45
2019-05-29T17:52:33.402Z,21.46
2019-05-29T17:55:00.214Z,21.46
2019-05-29T17:57:27.034Z,21.45
2019-05-29T17:59:53.805Z,21.46
2019-05-29T18:02:20.608Z,21.45
2019-05-29T18:04:47.475Z,21.46
2019-05-29T18:07:14.259Z,21.45
2019-05-29T18:09:41.030Z,21.46
2019-05-29T18:12:07.807Z,21.45
2019-05-29T18:14:34.586Z,21.46
2019-05-29T18:17:01.365Z,21.43
2019-05-29T18:19:28.350Z,21.45
2019-05-29T18:21:55.192Z,21.45
2019-05-29T18:24:21.960Z,21.45
2019-05-29T18:26:48.802Z,21.46
2019-05-29T18:29:15.651Z,21.45
2019-05-29T18:31:42.444Z,20.31
2019-05-29T18:34:09.245Z,21.45
2019-05-29T18:36:36.036Z,21.46
2019-05-29T18:39:03.336Z,21.45
2019-05-29T18:41:30.156Z,21.46
2019-05-29T18:43:56.924Z,21.44
2019-05-29T18:46:24.992Z,21.45
2019-05-29T18:48:52.318Z,21.45
2019-05-29T18:51:20.342Z,21.45
2019-05-29T18:53:47.260Z,21.45
2019-05-29T18:56:14.073Z,21.44
2019-05-29T18:58:40.846Z,21.44
2019-05-29T19:01:07.729Z,21.45
2019-05-29T19:03:34.567Z,21.46
2019-05-29T19:06:01.370Z,21.45
2019-05-29T19:08:28.142Z,21.45
2019-05-29T19:10:54.942Z,21.46
2019-05-29T19:13:21.798Z,21.48
2019-05-29T19:15:48.544Z,21.51
2019-05-29T19:18:15.319Z,21.51
2019-05-29T19:20:42.098Z,21.53
2019-05-29T19:23:08.892Z,21.51
2019-05-29T19:25:35.657Z,21.55
2019-05-29T19:28:02.478Z,21.60
2019-05-29T19:30:29.496Z,21.64
2019-05-29T19:32:56.304Z,21.64
2019-05-29T19:35:23.477Z,21.64
2019-05-29T19:37:50.353Z,21.63
2019-05-29T19:40:17.142Z,21.62
2019-05-29T19:42:43.906Z,21.59
2019-05-29T19:45:10.683Z,21.57
2019-05-29T19:47:37.456Z,21.56
2019-05-29T19:50:04.230Z,21.54
2019-05-29T19:52:31.246Z,21.52
2019-05-29T19:54:58.081Z,21.52
2019-05-29T19:57:25.919Z,21.51
2019-05-29T19:59:52.947Z,21.51
2019-05-29T20:02:19.712Z,21.51
2019-05-29T20:04:46.505Z,21.52
2019-05-29T20:07:13.281Z,21.51
2019-05-29T20:09:40.084Z,21.51
2019-05-29T20:12:06.894Z,21.49
2019-05-29T20:14:33.853Z,21.49
2019-05-29T20:17:00.850Z,21.50
2019-05-29T20:19:28.262Z,21.50
2019-05-29T20:21:55.244Z,21.49
2019-05-29T20:24:22.141Z,21.52
2019-05-29T20:26:48.989Z,21.52
2019-05-29T20:29:15.941Z,21.52
2019-05-29T20:31:42.988Z,21.52
2019-05-29T20:34:09.784Z,21.52
2019-05-29T20:36:37.271Z,21.53
2019-05-29T20:39:05.402Z,21.52
2019-05-29T20:41:34.984Z,21.53
2019-05-29T20:44:00.931Z,21.52
2019-05-29T20:46:27.753Z,21.52
2019-05-29T20:48:54.626Z,21.52
2019-05-29T20:51:21.473Z,21.52
2019-05-29T20:53:48.303Z,21.52
2019-05-29T20:56:15.119Z,21.53
2019-05-29T20:58:42.025Z,21.53
2019-05-29T21:01:08.998Z,21.52
2019-05-29T21:03:36.319Z,21.53
2019-05-29T21:06:03.349Z,21.53
2019-05-29T21:08:30.202Z,21.52
2019-05-29T21:10:57.030Z,21.53
2019-05-29T21:13:24.198Z,21.52
2019-05-29T21:15:51.182Z,21.53
2019-05-29T21:18:17.978Z,21.53
2019-05-29T21:20:44.914Z,21.53
2019-05-29T21:23:12.013Z,21.53
2019-05-29T21:25:39.037Z,21.52
2019-05-29T21:28:06.076Z,21.54
2019-05-29T21:30:32.972Z,21.52
2019-05-29T21:32:59.800Z,21.53
2019-05-29T21:35:26.726Z,21.54
2019-05-29T21:37:53.598Z,21.52
2019-05-29T21:40:20.527Z,21.54
2019-05-29T21:42:47.479Z,21.53
2019-05-29T21:45:14.333Z,21.53
2019-05-29T21:47:41.209Z,21.54
2019-05-29T21:50:08.120Z,21.54
2019-05-29T21:52:34.969Z,21.53
2019-05-29T21:55:01.764Z,21.52
2019-05-29T21:57:28.723Z,21.54
2019-05-29T21:59:55.676Z,21.53
2019-05-29T22:02:22.648Z,21.54
2019-05-29T22:04:50.089Z,21.53
2019-05-29T22:07:16.942Z,21.52
2019-05-29T22:09:43.783Z,21.53
2019-05-29T22:12:10.725Z,21.54
2019-05-29T22:14:37.527Z,21.53
2019-05-29T22:17:04.452Z,21.53
2019-05-29T22:19:31.361Z,21.52
2019-05-29T22:21:59.171Z,21.55
2019-05-29T22:24:26.273Z,21.57
2019-05-29T22:26:53.223Z,21.53
2019-05-29T22:29:20.059Z,21.53
2019-05-29T22:31:46.997Z,21.52
2019-05-29T22:34:13.916Z,21.52
2019-05-29T22:36:40.780Z,21.51
2019-05-29T22:39:07.707Z,21.51
2019-05-29T22:41:34.724Z,21.51
2019-05-29T22:44:02.617Z,21.51
2019-05-29T22:46:29.638Z,21.50
2019-05-29T22:48:57.823Z,21.51
2019-05-29T22:51:24.687Z,21.51
2019-05-29T22:53:52.512Z,21.50
2019-05-29T22:56:20.235Z,21.50
2019-05-29T22:58:47.195Z,21.49
2019-05-29T23:01:14.002Z,21.50
2019-05-29T23:03:40.964Z,21.50
2019-05-29T23:06:07.844Z,21.50
2019-05-29T23:08:35.430Z,21.49
2019-05-29T23:11:03.107Z,21.51
2019-05-29T23:13:30.154Z,21.49
2019-05-29T23:15:57.037Z,21.51
2019-05-29T23:18:24.011Z,21.49
2019-05-29T23:20:50.924Z,21.49
2019-05-29T23:23:17.858Z,21.48
2019-05-29T23:25:44.893Z,21.49
2019-05-29T23:28:11.825Z,21.48
2019-05-29T23:30:38.804Z,21.48
2019-05-29T23:33:05.791Z,21.48
2019-05-29T23:35:32.638Z,21.48
2019-05-29T23:37:59.563Z,21.47
2019-05-29T23:40:26.484Z,21.47
2019-05-29T23:42:53.399Z,21.48
2019-05-29T23:45:20.281Z,21.48
2019-05-29T23:47:47.062Z,21.47
2019-05-29T23:50:13.938Z,21.47
2019-05-29T23:52:40.854Z,21.47
2019-05-29T23:55:07.739Z,21.46
2019-05-29T23:57:34.577Z,21.47
